sensor_id;sensor_type;location;lat;lon;timestamp;P1;durP1;ratioP1;P2;durP2;ratioP2
59336;SDS011;45115;52.002;4.686;2022-12-18T00:01:59;77.47;;;26.50;;
59336;SDS011;45115;52.002;4.686;2022-12-18T00:04:26;82.30;;;28.80;;
59336;SDS011;45115;52.002;4.686;2022-12-18T00:06:53;79.70;;;30.40;;
59336;SDS011;45115;52.002;4.686;2022-12-18T00:09:20;82.05;;;27.60;;
59336;SDS011;45115;52.002;4.686;2022-12-18T00:11:47;78.63;;;26.83;;
59336;SDS011;45115;52.002;4.686;2022-12-18T00:14:14;82.03;;;27.85;;
59336;SDS011;45115;52.002;4.686;2022-12-18T00:16:44;62.15;;;23.63;;
59336;SDS011;45115;52.002;4.686;2022-12-18T00:19:11;68.43;;;26.55;;
59336;SDS011;45115;52.002;4.686;2022-12-18T00:21:39;79.75;;;27.58;;
59336;SDS011;45115;52.002;4.686;2022-12-18T00:24:07;94.15;;;26.80;;
59336;SDS011;45115;52.002;4.686;2022-12-18T00:26:36;66.18;;;24.05;;
59336;SDS011;45115;52.002;4.686;2022-12-18T00:29:05;63.13;;;24.55;;
59336;SDS011;45115;52.002;4.686;2022-12-18T00:31:34;64.95;;;26.00;;
59336;SDS011;45115;52.002;4.686;2022-12-18T00:34:02;79.03;;;28.05;;
59336;SDS011;45115;52.002;4.686;2022-12-18T00:36:30;72.20;;;25.92;;
59336;SDS011;45115;52.002;4.686;2022-12-18T00:38:58;61.88;;;22.27;;
59336;SDS011;45115;52.002;4.686;2022-12-18T00:41:27;61.17;;;23.23;;
59336;SDS011;45115;52.002;4.686;2022-12-18T00:44:13;76.68;;;22.92;;
59336;SDS011;45115;52.002;4.686;2022-12-18T00:46:40;88.43;;;26.83;;
59336;SDS011;45115;52.002;4.686;2022-12-18T00:49:12;83.35;;;25.13;;
59336;SDS011;45115;52.002;4.686;2022-12-18T00:51:39;61.10;;;25.05;;
59336;SDS011;45115;52.002;4.686;2022-12-18T00:54:06;59.53;;;24.88;;
59336;SDS011;45115;52.002;4.686;2022-12-18T00:56:34;59.63;;;23.65;;
59336;SDS011;45115;52.002;4.686;2022-12-18T00:59:01;63.97;;;23.52;;
59336;SDS011;45115;52.002;4.686;2022-12-18T01:01:28;65.20;;;26.08;;
59336;SDS011;45115;52.002;4.686;2022-12-18T01:03:58;75.13;;;25.42;;
59336;SDS011;45115;52.002;4.686;2022-12-18T01:08:54;59.85;;;24.38;;
59336;SDS011;45115;52.002;4.686;2022-12-18T01:11:22;55.10;;;23.77;;
59336;SDS011;45115;52.002;4.686;2022-12-18T01:13:49;59.17;;;24.67;;
59336;SDS011;45115;52.002;4.686;2022-12-18T01:16:17;62.38;;;24.90;;
59336;SDS011;45115;52.002;4.686;2022-12-18T01:18:44;65.90;;;24.95;;
59336;SDS011;45115;52.002;4.686;2022-12-18T01:21:12;68.97;;;27.25;;
59336;SDS011;45115;52.002;4.686;2022-12-18T01:23:46;62.60;;;24.13;;
59336;SDS011;45115;52.002;4.686;2022-12-18T01:26:13;65.72;;;23.33;;
59336;SDS011;45115;52.002;4.686;2022-12-18T01:28:42;68.50;;;23.67;;
59336;SDS011;45115;52.002;4.686;2022-12-18T01:31:14;68.30;;;23.42;;
59336;SDS011;45115;52.002;4.686;2022-12-18T01:33:42;66.05;;;24.70;;
59336;SDS011;45115;52.002;4.686;2022-12-18T01:36:14;69.82;;;23.48;;
59336;SDS011;45115;52.002;4.686;2022-12-18T01:38:42;52.70;;;21.90;;
59336;SDS011;45115;52.002;4.686;2022-12-18T01:41:10;69.22;;;23.85;;
59336;SDS011;45115;52.002;4.686;2022-12-18T01:43:45;77.18;;;24.90;;
59336;SDS011;45115;52.002;4.686;2022-12-18T01:46:18;56.50;;;21.08;;
59336;SDS011;45115;52.002;4.686;2022-12-18T01:48:46;50.88;;;22.77;;
59336;SDS011;45115;52.002;4.686;2022-12-18T01:51:14;58.95;;;22.58;;
59336;SDS011;45115;52.002;4.686;2022-12-18T01:53:42;60.40;;;23.58;;
59336;SDS011;45115;52.002;4.686;2022-12-18T01:56:13;53.78;;;22.20;;
59336;SDS011;45115;52.002;4.686;2022-12-18T01:58:44;55.38;;;21.77;;
59336;SDS011;45115;52.002;4.686;2022-12-18T02:01:16;57.78;;;22.05;;
59336;SDS011;45115;52.002;4.686;2022-12-18T02:03:44;52.65;;;22.48;;
59336;SDS011;45115;52.002;4.686;2022-12-18T02:06:13;49.95;;;21.00;;
59336;SDS011;45115;52.002;4.686;2022-12-18T02:08:47;57.55;;;22.92;;
59336;SDS011;45115;52.002;4.686;2022-12-18T02:11:27;59.72;;;21.35;;
59336;SDS011;45115;52.002;4.686;2022-12-18T02:14:07;50.85;;;20.05;;
59336;SDS011;45115;52.002;4.686;2022-12-18T02:16:43;65.20;;;21.85;;
59336;SDS011;45115;52.002;4.686;2022-12-18T02:19:17;69.18;;;25.35;;
59336;SDS011;45115;52.002;4.686;2022-12-18T02:22:05;55.10;;;21.38;;
59336;SDS011;45115;52.002;4.686;2022-12-18T02:24:41;44.70;;;20.42;;
59336;SDS011;45115;52.002;4.686;2022-12-18T02:27:20;54.13;;;22.60;;
59336;SDS011;45115;52.002;4.686;2022-12-18T02:29:48;63.88;;;24.17;;
59336;SDS011;45115;52.002;4.686;2022-12-18T02:32:19;72.28;;;22.48;;
59336;SDS011;45115;52.002;4.686;2022-12-18T02:34:51;53.08;;;22.17;;
59336;SDS011;45115;52.002;4.686;2022-12-18T02:37:22;50.20;;;18.77;;
59336;SDS011;45115;52.002;4.686;2022-12-18T02:39:52;63.10;;;23.05;;
59336;SDS011;45115;52.002;4.686;2022-12-18T02:42:23;51.13;;;20.38;;
59336;SDS011;45115;52.002;4.686;2022-12-18T02:44:51;52.78;;;21.08;;
59336;SDS011;45115;52.002;4.686;2022-12-18T02:47:24;55.88;;;21.05;;
59336;SDS011;45115;52.002;4.686;2022-12-18T02:49:58;64.65;;;21.75;;
59336;SDS011;45115;52.002;4.686;2022-12-18T02:52:35;55.47;;;22.00;;
59336;SDS011;45115;52.002;4.686;2022-12-18T02:55:16;68.30;;;24.55;;
59336;SDS011;45115;52.002;4.686;2022-12-18T02:57:59;65.63;;;23.48;;
59336;SDS011;45115;52.002;4.686;2022-12-18T03:00:36;52.90;;;21.33;;
59336;SDS011;45115;52.002;4.686;2022-12-18T03:03:09;52.03;;;20.58;;
59336;SDS011;45115;52.002;4.686;2022-12-18T03:05:43;56.67;;;21.30;;
59336;SDS011;45115;52.002;4.686;2022-12-18T03:08:17;54.88;;;23.08;;
59336;SDS011;45115;52.002;4.686;2022-12-18T03:10:49;66.18;;;23.42;;
59336;SDS011;45115;52.002;4.686;2022-12-18T03:13:25;57.30;;;22.55;;
59336;SDS011;45115;52.002;4.686;2022-12-18T03:15:58;53.90;;;21.95;;
59336;SDS011;45115;52.002;4.686;2022-12-18T03:18:29;67.22;;;22.50;;
59336;SDS011;45115;52.002;4.686;2022-12-18T03:20:59;58.30;;;21.83;;
59336;SDS011;45115;52.002;4.686;2022-12-18T03:23:32;44.63;;;20.25;;
59336;SDS011;45115;52.002;4.686;2022-12-18T03:26:04;52.95;;;22.25;;
59336;SDS011;45115;52.002;4.686;2022-12-18T03:28:38;54.60;;;20.38;;
59336;SDS011;45115;52.002;4.686;2022-12-18T03:31:09;54.60;;;22.05;;
59336;SDS011;45115;52.002;4.686;2022-12-18T03:33:39;49.30;;;18.92;;
59336;SDS011;45115;52.002;4.686;2022-12-18T03:36:10;50.45;;;21.35;;
59336;SDS011;45115;52.002;4.686;2022-12-18T03:38:37;58.13;;;24.50;;
59336;SDS011;45115;52.002;4.686;2022-12-18T03:41:08;56.75;;;23.45;;
59336;SDS011;45115;52.002;4.686;2022-12-18T03:44:10;67.22;;;21.63;;
59336;SDS011;45115;52.002;4.686;2022-12-18T03:46:45;54.13;;;20.65;;
59336;SDS011;45115;52.002;4.686;2022-12-18T03:49:21;57.30;;;22.23;;
59336;SDS011;45115;52.002;4.686;2022-12-18T03:51:57;58.00;;;22.65;;
59336;SDS011;45115;52.002;4.686;2022-12-18T03:54:29;49.72;;;21.75;;
59336;SDS011;45115;52.002;4.686;2022-12-18T03:57:07;63.05;;;23.52;;
59336;SDS011;45115;52.002;4.686;2022-12-18T03:59:41;58.25;;;20.83;;
59336;SDS011;45115;52.002;4.686;2022-12-18T04:02:12;59.85;;;22.52;;
59336;SDS011;45115;52.002;4.686;2022-12-18T04:04:42;58.65;;;23.23;;
59336;SDS011;45115;52.002;4.686;2022-12-18T04:07:10;62.30;;;23.60;;
59336;SDS011;45115;52.002;4.686;2022-12-18T04:09:40;60.80;;;23.88;;
59336;SDS011;45115;52.002;4.686;2022-12-18T04:12:12;53.83;;;22.40;;
59336;SDS011;45115;52.002;4.686;2022-12-18T04:14:41;59.20;;;24.45;;
59336;SDS011;45115;52.002;4.686;2022-12-18T04:17:08;64.35;;;24.20;;
59336;SDS011;45115;52.002;4.686;2022-12-18T04:19:36;48.40;;;21.90;;
59336;SDS011;45115;52.002;4.686;2022-12-18T04:22:02;63.45;;;25.92;;
59336;SDS011;45115;52.002;4.686;2022-12-18T04:24:35;54.60;;;21.98;;
59336;SDS011;45115;52.002;4.686;2022-12-18T04:27:09;58.13;;;24.10;;
59336;SDS011;45115;52.002;4.686;2022-12-18T04:29:44;53.13;;;22.83;;
59336;SDS011;45115;52.002;4.686;2022-12-18T04:32:11;55.22;;;22.65;;
59336;SDS011;45115;52.002;4.686;2022-12-18T04:34:40;69.32;;;22.92;;
59336;SDS011;45115;52.002;4.686;2022-12-18T04:37:07;56.65;;;23.85;;
59336;SDS011;45115;52.002;4.686;2022-12-18T04:39:34;56.22;;;25.95;;
59336;SDS011;45115;52.002;4.686;2022-12-18T04:42:06;57.50;;;23.05;;
59336;SDS011;45115;52.002;4.686;2022-12-18T04:44:33;55.92;;;23.20;;
59336;SDS011;45115;52.002;4.686;2022-12-18T04:47:01;54.80;;;22.52;;
59336;SDS011;45115;52.002;4.686;2022-12-18T04:49:28;52.05;;;21.63;;
59336;SDS011;45115;52.002;4.686;2022-12-18T04:51:55;52.28;;;21.73;;
59336;SDS011;45115;52.002;4.686;2022-12-18T04:54:22;52.15;;;22.10;;
59336;SDS011;45115;52.002;4.686;2022-12-18T04:56:49;52.35;;;22.20;;
59336;SDS011;45115;52.002;4.686;2022-12-18T04:59:15;62.38;;;23.02;;
59336;SDS011;45115;52.002;4.686;2022-12-18T05:01:42;58.88;;;23.75;;
59336;SDS011;45115;52.002;4.686;2022-12-18T05:04:10;55.80;;;22.58;;
59336;SDS011;45115;52.002;4.686;2022-12-18T05:06:37;50.92;;;20.55;;
59336;SDS011;45115;52.002;4.686;2022-12-18T05:09:04;49.10;;;20.83;;
59336;SDS011;45115;52.002;4.686;2022-12-18T05:11:30;59.83;;;22.92;;
59336;SDS011;45115;52.002;4.686;2022-12-18T05:13:57;55.80;;;20.45;;
59336;SDS011;45115;52.002;4.686;2022-12-18T05:16:24;52.05;;;20.83;;
59336;SDS011;45115;52.002;4.686;2022-12-18T05:18:51;62.17;;;23.90;;
59336;SDS011;45115;52.002;4.686;2022-12-18T05:21:19;60.72;;;24.00;;
59336;SDS011;45115;52.002;4.686;2022-12-18T05:23:45;52.53;;;21.25;;
59336;SDS011;45115;52.002;4.686;2022-12-18T05:26:14;61.90;;;22.75;;
59336;SDS011;45115;52.002;4.686;2022-12-18T05:28:43;52.00;;;21.50;;
59336;SDS011;45115;52.002;4.686;2022-12-18T05:31:10;49.10;;;19.65;;
59336;SDS011;45115;52.002;4.686;2022-12-18T05:33:37;47.55;;;20.95;;
59336;SDS011;45115;52.002;4.686;2022-12-18T05:36:05;53.38;;;22.58;;
59336;SDS011;45115;52.002;4.686;2022-12-18T05:38:35;58.80;;;21.48;;
59336;SDS011;45115;52.002;4.686;2022-12-18T05:41:03;58.30;;;23.48;;
59336;SDS011;45115;52.002;4.686;2022-12-18T05:43:31;52.22;;;20.83;;
59336;SDS011;45115;52.002;4.686;2022-12-18T05:46:02;48.13;;;22.13;;
59336;SDS011;45115;52.002;4.686;2022-12-18T05:48:30;51.28;;;20.63;;
59336;SDS011;45115;52.002;4.686;2022-12-18T05:51:02;49.03;;;21.60;;
59336;SDS011;45115;52.002;4.686;2022-12-18T05:53:31;47.25;;;20.17;;
59336;SDS011;45115;52.002;4.686;2022-12-18T05:56:00;62.78;;;23.25;;
59336;SDS011;45115;52.002;4.686;2022-12-18T05:58:28;47.92;;;21.98;;
59336;SDS011;45115;52.002;4.686;2022-12-18T06:00:55;66.25;;;24.33;;
59336;SDS011;45115;52.002;4.686;2022-12-18T06:03:22;50.10;;;21.15;;
59336;SDS011;45115;52.002;4.686;2022-12-18T06:05:49;45.35;;;20.67;;
59336;SDS011;45115;52.002;4.686;2022-12-18T06:08:16;57.17;;;22.02;;
59336;SDS011;45115;52.002;4.686;2022-12-18T06:10:48;48.28;;;21.65;;
59336;SDS011;45115;52.002;4.686;2022-12-18T06:13:17;45.58;;;19.60;;
59336;SDS011;45115;52.002;4.686;2022-12-18T06:15:44;45.80;;;21.00;;
59336;SDS011;45115;52.002;4.686;2022-12-18T06:18:11;47.47;;;20.65;;
59336;SDS011;45115;52.002;4.686;2022-12-18T06:20:38;51.70;;;21.73;;
59336;SDS011;45115;52.002;4.686;2022-12-18T06:23:06;50.30;;;20.63;;
59336;SDS011;45115;52.002;4.686;2022-12-18T06:25:36;47.40;;;21.88;;
59336;SDS011;45115;52.002;4.686;2022-12-18T06:28:04;49.90;;;20.45;;
59336;SDS011;45115;52.002;4.686;2022-12-18T06:30:32;45.03;;;19.40;;
59336;SDS011;45115;52.002;4.686;2022-12-18T06:32:59;45.70;;;18.63;;
59336;SDS011;45115;52.002;4.686;2022-12-18T06:35:25;44.22;;;21.13;;
59336;SDS011;45115;52.002;4.686;2022-12-18T06:37:52;43.35;;;19.48;;
59336;SDS011;45115;52.002;4.686;2022-12-18T06:40:19;45.78;;;20.60;;
59336;SDS011;45115;52.002;4.686;2022-12-18T06:42:46;50.38;;;20.08;;
59336;SDS011;45115;52.002;4.686;2022-12-18T06:45:16;44.22;;;19.10;;
59336;SDS011;45115;52.002;4.686;2022-12-18T06:47:44;52.88;;;20.40;;
59336;SDS011;45115;52.002;4.686;2022-12-18T06:50:11;49.47;;;21.80;;
59336;SDS011;45115;52.002;4.686;2022-12-18T06:52:38;48.28;;;19.13;;
59336;SDS011;45115;52.002;4.686;2022-12-18T06:55:09;40.05;;;17.58;;
59336;SDS011;45115;52.002;4.686;2022-12-18T06:57:37;44.28;;;18.83;;
59336;SDS011;45115;52.002;4.686;2022-12-18T07:00:05;45.97;;;19.45;;
59336;SDS011;45115;52.002;4.686;2022-12-18T07:02:33;47.20;;;19.58;;
59336;SDS011;45115;52.002;4.686;2022-12-18T07:05:01;40.55;;;18.55;;
59336;SDS011;45115;52.002;4.686;2022-12-18T07:07:28;47.50;;;20.45;;
59336;SDS011;45115;52.002;4.686;2022-12-18T07:09:55;43.55;;;19.35;;
59336;SDS011;45115;52.002;4.686;2022-12-18T07:12:22;43.70;;;18.88;;
59336;SDS011;45115;52.002;4.686;2022-12-18T07:14:48;47.25;;;17.98;;
59336;SDS011;45115;52.002;4.686;2022-12-18T07:17:15;40.47;;;17.80;;
59336;SDS011;45115;52.002;4.686;2022-12-18T07:19:42;40.10;;;18.33;;
59336;SDS011;45115;52.002;4.686;2022-12-18T07:22:10;37.45;;;18.65;;
59336;SDS011;45115;52.002;4.686;2022-12-18T07:24:37;42.05;;;18.40;;
59336;SDS011;45115;52.002;4.686;2022-12-18T07:27:04;34.30;;;15.95;;
59336;SDS011;45115;52.002;4.686;2022-12-18T07:29:30;39.58;;;18.45;;
59336;SDS011;45115;52.002;4.686;2022-12-18T07:31:57;34.35;;;17.25;;
59336;SDS011;45115;52.002;4.686;2022-12-18T07:34:24;36.75;;;16.17;;
59336;SDS011;45115;52.002;4.686;2022-12-18T07:36:53;40.58;;;18.63;;
59336;SDS011;45115;52.002;4.686;2022-12-18T07:39:21;34.50;;;18.30;;
59336;SDS011;45115;52.002;4.686;2022-12-18T07:41:47;45.42;;;19.42;;
59336;SDS011;45115;52.002;4.686;2022-12-18T07:44:34;35.08;;;18.40;;
59336;SDS011;45115;52.002;4.686;2022-12-18T07:47:02;40.65;;;17.40;;
59336;SDS011;45115;52.002;4.686;2022-12-18T07:49:29;47.72;;;19.73;;
59336;SDS011;45115;52.002;4.686;2022-12-18T07:51:56;39.22;;;19.20;;
59336;SDS011;45115;52.002;4.686;2022-12-18T07:54:25;39.78;;;18.42;;
59336;SDS011;45115;52.002;4.686;2022-12-18T07:56:51;38.95;;;18.98;;
59336;SDS011;45115;52.002;4.686;2022-12-18T07:59:18;48.97;;;20.10;;
59336;SDS011;45115;52.002;4.686;2022-12-18T08:01:45;39.95;;;19.83;;
59336;SDS011;45115;52.002;4.686;2022-12-18T08:04:12;43.33;;;18.88;;
59336;SDS011;45115;52.002;4.686;2022-12-18T08:06:39;41.78;;;20.50;;
59336;SDS011;45115;52.002;4.686;2022-12-18T08:09:06;44.75;;;20.48;;
59336;SDS011;45115;52.002;4.686;2022-12-18T08:11:35;42.80;;;18.83;;
59336;SDS011;45115;52.002;4.686;2022-12-18T08:14:02;51.13;;;19.77;;
59336;SDS011;45115;52.002;4.686;2022-12-18T08:16:28;43.38;;;20.52;;
59336;SDS011;45115;52.002;4.686;2022-12-18T08:18:55;43.08;;;19.70;;
59336;SDS011;45115;52.002;4.686;2022-12-18T08:21:23;46.05;;;18.65;;
59336;SDS011;45115;52.002;4.686;2022-12-18T08:23:52;43.97;;;19.85;;
59336;SDS011;45115;52.002;4.686;2022-12-18T08:26:21;34.53;;;17.02;;
59336;SDS011;45115;52.002;4.686;2022-12-18T08:28:50;33.90;;;17.80;;
59336;SDS011;45115;52.002;4.686;2022-12-18T08:31:17;37.17;;;18.58;;
59336;SDS011;45115;52.002;4.686;2022-12-18T08:33:44;41.47;;;19.83;;
59336;SDS011;45115;52.002;4.686;2022-12-18T08:36:11;40.17;;;20.10;;
59336;SDS011;45115;52.002;4.686;2022-12-18T08:38:38;44.42;;;18.50;;
59336;SDS011;45115;52.002;4.686;2022-12-18T08:41:05;46.90;;;20.42;;
59336;SDS011;45115;52.002;4.686;2022-12-18T08:43:33;34.00;;;17.58;;
59336;SDS011;45115;52.002;4.686;2022-12-18T08:46:20;40.88;;;17.55;;
59336;SDS011;45115;52.002;4.686;2022-12-18T08:48:48;43.33;;;19.17;;
59336;SDS011;45115;52.002;4.686;2022-12-18T08:51:16;41.53;;;18.98;;
59336;SDS011;45115;52.002;4.686;2022-12-18T08:53:44;42.47;;;19.05;;
59336;SDS011;45115;52.002;4.686;2022-12-18T08:56:11;34.60;;;16.20;;
59336;SDS011;45115;52.002;4.686;2022-12-18T08:58:38;35.90;;;17.25;;
59336;SDS011;45115;52.002;4.686;2022-12-18T09:01:06;39.50;;;18.90;;
59336;SDS011;45115;52.002;4.686;2022-12-18T09:03:36;37.90;;;17.20;;
59336;SDS011;45115;52.002;4.686;2022-12-18T09:06:03;36.63;;;18.45;;
59336;SDS011;45115;52.002;4.686;2022-12-18T09:08:36;35.60;;;16.08;;
59336;SDS011;45115;52.002;4.686;2022-12-18T09:11:03;32.53;;;16.13;;
59336;SDS011;45115;52.002;4.686;2022-12-18T09:13:30;37.97;;;18.05;;
59336;SDS011;45115;52.002;4.686;2022-12-18T09:15:57;37.92;;;17.77;;
59336;SDS011;45115;52.002;4.686;2022-12-18T09:18:24;38.15;;;17.13;;
59336;SDS011;45115;52.002;4.686;2022-12-18T09:20:52;34.38;;;17.40;;
59336;SDS011;45115;52.002;4.686;2022-12-18T09:23:19;35.15;;;16.52;;
59336;SDS011;45115;52.002;4.686;2022-12-18T09:25:46;34.97;;;16.70;;
59336;SDS011;45115;52.002;4.686;2022-12-18T09:28:17;34.35;;;16.92;;
59336;SDS011;45115;52.002;4.686;2022-12-18T09:30:45;34.60;;;17.23;;
59336;SDS011;45115;52.002;4.686;2022-12-18T09:33:14;35.42;;;17.38;;
59336;SDS011;45115;52.002;4.686;2022-12-18T09:35:42;37.03;;;16.90;;
59336;SDS011;45115;52.002;4.686;2022-12-18T09:38:11;34.53;;;16.55;;
59336;SDS011;45115;52.002;4.686;2022-12-18T09:40:41;35.35;;;15.35;;
59336;SDS011;45115;52.002;4.686;2022-12-18T09:43:12;34.05;;;16.45;;
59336;SDS011;45115;52.002;4.686;2022-12-18T09:45:44;29.08;;;14.20;;
59336;SDS011;45115;52.002;4.686;2022-12-18T09:48:14;36.47;;;16.70;;
59336;SDS011;45115;52.002;4.686;2022-12-18T09:50:44;34.15;;;15.20;;
59336;SDS011;45115;52.002;4.686;2022-12-18T09:53:14;30.88;;;15.18;;
59336;SDS011;45115;52.002;4.686;2022-12-18T09:55:45;35.70;;;16.15;;
59336;SDS011;45115;52.002;4.686;2022-12-18T09:58:15;32.03;;;16.13;;
59336;SDS011;45115;52.002;4.686;2022-12-18T10:00:45;34.85;;;16.48;;
59336;SDS011;45115;52.002;4.686;2022-12-18T10:03:12;29.77;;;15.27;;
59336;SDS011;45115;52.002;4.686;2022-12-18T10:05:42;33.60;;;16.20;;
59336;SDS011;45115;52.002;4.686;2022-12-18T10:08:21;34.28;;;15.65;;
59336;SDS011;45115;52.002;4.686;2022-12-18T10:10:56;34.65;;;17.13;;
59336;SDS011;45115;52.002;4.686;2022-12-18T10:13:29;32.55;;;16.73;;
59336;SDS011;45115;52.002;4.686;2022-12-18T10:16:02;30.42;;;16.60;;
59336;SDS011;45115;52.002;4.686;2022-12-18T10:18:38;34.28;;;16.23;;
59336;SDS011;45115;52.002;4.686;2022-12-18T10:21:26;37.45;;;16.90;;
59336;SDS011;45115;52.002;4.686;2022-12-18T10:24:02;29.15;;;15.00;;
59336;SDS011;45115;52.002;4.686;2022-12-18T10:26:40;29.95;;;14.43;;
59336;SDS011;45115;52.002;4.686;2022-12-18T10:29:08;30.80;;;15.93;;
59336;SDS011;45115;52.002;4.686;2022-12-18T10:31:38;30.15;;;15.65;;
59336;SDS011;45115;52.002;4.686;2022-12-18T10:34:07;32.75;;;15.40;;
59336;SDS011;45115;52.002;4.686;2022-12-18T10:39:19;35.38;;;15.05;;
59336;SDS011;45115;52.002;4.686;2022-12-18T10:41:51;29.38;;;13.68;;
59336;SDS011;45115;52.002;4.686;2022-12-18T10:44:18;30.13;;;16.45;;
59336;SDS011;45115;52.002;4.686;2022-12-18T10:46:46;33.38;;;15.70;;
59336;SDS011;45115;52.002;4.686;2022-12-18T10:49:21;32.00;;;16.20;;
59336;SDS011;45115;52.002;4.686;2022-12-18T10:51:49;29.88;;;15.80;;
59336;SDS011;45115;52.002;4.686;2022-12-18T10:54:20;34.53;;;15.48;;
59336;SDS011;45115;52.002;4.686;2022-12-18T10:56:48;30.95;;;15.15;;
59336;SDS011;45115;52.002;4.686;2022-12-18T10:59:17;31.50;;;14.85;;
59336;SDS011;45115;52.002;4.686;2022-12-18T11:01:45;32.88;;;15.57;;
59336;SDS011;45115;52.002;4.686;2022-12-18T11:04:16;34.30;;;15.75;;
59336;SDS011;45115;52.002;4.686;2022-12-18T11:06:55;28.85;;;15.18;;
59336;SDS011;45115;52.002;4.686;2022-12-18T11:09:28;33.00;;;15.57;;
59336;SDS011;45115;52.002;4.686;2022-12-18T11:11:57;27.10;;;14.27;;
59336;SDS011;45115;52.002;4.686;2022-12-18T11:14:28;27.27;;;13.10;;
59336;SDS011;45115;52.002;4.686;2022-12-18T11:16:57;28.35;;;14.73;;
59336;SDS011;45115;52.002;4.686;2022-12-18T11:19:30;35.47;;;15.40;;
59336;SDS011;45115;52.002;4.686;2022-12-18T11:21:59;31.85;;;15.68;;
59336;SDS011;45115;52.002;4.686;2022-12-18T11:24:30;31.83;;;15.20;;
59336;SDS011;45115;52.002;4.686;2022-12-18T11:27:00;31.30;;;16.23;;
59336;SDS011;45115;52.002;4.686;2022-12-18T11:29:31;33.65;;;15.63;;
59336;SDS011;45115;52.002;4.686;2022-12-18T11:32:24;34.63;;;14.75;;
59336;SDS011;45115;52.002;4.686;2022-12-18T11:34:58;27.25;;;14.48;;
59336;SDS011;45115;52.002;4.686;2022-12-18T11:37:34;29.80;;;15.25;;
59336;SDS011;45115;52.002;4.686;2022-12-18T11:40:06;35.10;;;15.75;;
59336;SDS011;45115;52.002;4.686;2022-12-18T11:42:38;29.65;;;14.48;;
59336;SDS011;45115;52.002;4.686;2022-12-18T11:45:20;32.95;;;15.32;;
59336;SDS011;45115;52.002;4.686;2022-12-18T11:47:59;32.70;;;16.77;;
59336;SDS011;45115;52.002;4.686;2022-12-18T11:50:31;31.60;;;15.35;;
59336;SDS011;45115;52.002;4.686;2022-12-18T11:53:10;29.13;;;15.60;;
59336;SDS011;45115;52.002;4.686;2022-12-18T11:55:41;32.88;;;15.65;;
59336;SDS011;45115;52.002;4.686;2022-12-18T11:58:31;27.52;;;14.32;;
59336;SDS011;45115;52.002;4.686;2022-12-18T12:04:13;28.20;;;14.10;;
59336;SDS011;45115;52.002;4.686;2022-12-18T12:06:58;27.58;;;13.65;;
59336;SDS011;45115;52.002;4.686;2022-12-18T12:09:37;28.42;;;14.68;;
59336;SDS011;45115;52.002;4.686;2022-12-18T12:12:19;31.35;;;15.65;;
59336;SDS011;45115;52.002;4.686;2022-12-18T12:14:55;26.88;;;15.15;;
59336;SDS011;45115;52.002;4.686;2022-12-18T12:17:32;30.17;;;14.88;;
59336;SDS011;45115;52.002;4.686;2022-12-18T12:20:07;35.38;;;15.35;;
59336;SDS011;45115;52.002;4.686;2022-12-18T12:22:41;30.27;;;14.82;;
59336;SDS011;45115;52.002;4.686;2022-12-18T12:25:18;29.95;;;15.23;;
59336;SDS011;45115;52.002;4.686;2022-12-18T12:27:58;30.20;;;14.77;;
59336;SDS011;45115;52.002;4.686;2022-12-18T12:30:40;31.02;;;14.98;;
59336;SDS011;45115;52.002;4.686;2022-12-18T12:33:17;27.80;;;13.63;;
59336;SDS011;45115;52.002;4.686;2022-12-18T12:35:56;28.35;;;13.90;;
59336;SDS011;45115;52.002;4.686;2022-12-18T12:38:31;31.48;;;14.18;;
59336;SDS011;45115;52.002;4.686;2022-12-18T12:41:02;31.25;;;14.73;;
59336;SDS011;45115;52.002;4.686;2022-12-18T12:43:35;31.65;;;14.10;;
59336;SDS011;45115;52.002;4.686;2022-12-18T12:46:05;26.35;;;14.38;;
59336;SDS011;45115;52.002;4.686;2022-12-18T12:48:35;27.25;;;13.73;;
59336;SDS011;45115;52.002;4.686;2022-12-18T12:51:09;31.85;;;14.35;;
59336;SDS011;45115;52.002;4.686;2022-12-18T12:53:40;30.42;;;15.73;;
59336;SDS011;45115;52.002;4.686;2022-12-18T12:56:09;30.05;;;15.23;;
59336;SDS011;45115;52.002;4.686;2022-12-18T12:58:41;32.03;;;14.50;;
59336;SDS011;45115;52.002;4.686;2022-12-18T13:01:22;36.45;;;15.15;;
59336;SDS011;45115;52.002;4.686;2022-12-18T13:03:56;28.50;;;14.90;;
59336;SDS011;45115;52.002;4.686;2022-12-18T13:06:33;29.30;;;13.35;;
59336;SDS011;45115;52.002;4.686;2022-12-18T13:09:09;26.52;;;14.20;;
59336;SDS011;45115;52.002;4.686;2022-12-18T13:11:38;33.83;;;15.35;;
59336;SDS011;45115;52.002;4.686;2022-12-18T13:14:29;29.33;;;15.57;;
59336;SDS011;45115;52.002;4.686;2022-12-18T13:17:16;32.63;;;15.95;;
59336;SDS011;45115;52.002;4.686;2022-12-18T13:20:11;30.88;;;15.52;;
59336;SDS011;45115;52.002;4.686;2022-12-18T13:22:40;32.38;;;15.13;;
59336;SDS011;45115;52.002;4.686;2022-12-18T13:25:29;29.98;;;14.45;;
59336;SDS011;45115;52.002;4.686;2022-12-18T13:28:00;30.00;;;15.90;;
59336;SDS011;45115;52.002;4.686;2022-12-18T13:36:15;36.58;;;16.38;;
59336;SDS011;45115;52.002;4.686;2022-12-18T13:39:08;29.02;;;13.75;;
59336;SDS011;45115;52.002;4.686;2022-12-18T13:44:26;27.23;;;15.00;;
59336;SDS011;45115;52.002;4.686;2022-12-18T13:46:59;31.13;;;16.00;;
59336;SDS011;45115;52.002;4.686;2022-12-18T13:49:30;33.95;;;15.68;;
59336;SDS011;45115;52.002;4.686;2022-12-18T13:52:03;29.02;;;14.40;;
59336;SDS011;45115;52.002;4.686;2022-12-18T13:54:42;28.42;;;15.52;;
59336;SDS011;45115;52.002;4.686;2022-12-18T13:59:51;29.55;;;16.10;;
59336;SDS011;45115;52.002;4.686;2022-12-18T14:02:21;32.92;;;15.25;;
59336;SDS011;45115;52.002;4.686;2022-12-18T14:04:49;31.90;;;15.88;;
59336;SDS011;45115;52.002;4.686;2022-12-18T14:07:16;32.55;;;15.45;;
59336;SDS011;45115;52.002;4.686;2022-12-18T14:09:46;32.88;;;17.23;;
59336;SDS011;45115;52.002;4.686;2022-12-18T14:12:16;32.78;;;16.35;;
59336;SDS011;45115;52.002;4.686;2022-12-18T14:15:05;34.50;;;16.52;;
59336;SDS011;45115;52.002;4.686;2022-12-18T14:17:42;34.30;;;16.27;;
59336;SDS011;45115;52.002;4.686;2022-12-18T14:20:12;30.00;;;16.23;;
59336;SDS011;45115;52.002;4.686;2022-12-18T14:22:42;32.45;;;17.02;;
59336;SDS011;45115;52.002;4.686;2022-12-18T14:25:13;32.53;;;16.67;;
59336;SDS011;45115;52.002;4.686;2022-12-18T14:27:43;35.20;;;16.58;;
59336;SDS011;45115;52.002;4.686;2022-12-18T14:33:03;38.30;;;18.55;;
59336;SDS011;45115;52.002;4.686;2022-12-18T14:35:32;35.90;;;17.50;;
59336;SDS011;45115;52.002;4.686;2022-12-18T14:40:52;31.13;;;15.98;;
59336;SDS011;45115;52.002;4.686;2022-12-18T14:43:28;32.35;;;16.27;;
59336;SDS011;45115;52.002;4.686;2022-12-18T14:45:58;33.22;;;16.60;;
59336;SDS011;45115;52.002;4.686;2022-12-18T14:48:33;29.77;;;16.20;;
59336;SDS011;45115;52.002;4.686;2022-12-18T14:51:03;32.28;;;15.98;;
59336;SDS011;45115;52.002;4.686;2022-12-18T14:53:33;32.88;;;16.10;;
59336;SDS011;45115;52.002;4.686;2022-12-18T14:56:03;31.33;;;16.13;;
59336;SDS011;45115;52.002;4.686;2022-12-18T14:58:43;32.17;;;16.40;;
59336;SDS011;45115;52.002;4.686;2022-12-18T15:01:17;32.22;;;14.90;;
59336;SDS011;45115;52.002;4.686;2022-12-18T15:03:46;34.88;;;16.25;;
59336;SDS011;45115;52.002;4.686;2022-12-18T15:06:17;32.20;;;15.75;;
59336;SDS011;45115;52.002;4.686;2022-12-18T15:08:50;35.28;;;16.38;;